Time;durP1;ratioP1;P1;durP2;ratioP2;P2;SDS_P1;SDS_P2;PMS_P1;PMS_P2;Temp;Humidity;BMP_temperature;BMP_pressure;BME280_temperature;BME280_humidity;BME280_pressure;Samples;Min_cycle;Max_cycle;Signal;HPM_P1;HPM_P2
2022/12/14 00:00:41;;;;;;;17.93;9.63;;;-2.80;99.90;;;;;;4197876;28;20714;-67
2022/12/14 00:02:41;;;;;;;20.73;11.20;;;-2.70;99.90;;;;;;4197013;28;20483;-68
2022/12/14 00:04:42;;;;;;;24.47;11.13;;;-2.80;99.90;;;;;;4197782;28;20199;-66
2022/12/14 00:06:43;;;;;;;21.70;11.97;;;-2.70;99.90;;;;;;4196686;28;20182;-67
2022/12/14 00:08:46;;;;;;;21.97;12.13;;;-2.70;99.90;;;;;;4196634;28;20279;-67
2022/12/14 00:10:46;;;;;;;28.37;12.93;;;-2.70;99.90;;;;;;4195951;28;20519;-67
2022/12/14 00:12:47;;;;;;;23.57;12.17;;;-2.60;99.90;;;;;;4196650;28;20469;-67
2022/12/14 00:14:48;;;;;;;25.73;13.33;;;-2.60;99.90;;;;;;4197116;28;20202;-67
2022/12/14 00:16:48;;;;;;;26.03;13.30;;;-2.60;99.90;;;;;;4197450;28;20215;-67
2022/12/14 00:18:52;;;;;;;29.00;13.67;;;-2.70;99.90;;;;;;4197326;28;20182;-67
2022/12/14 00:20:53;;;;;;;23.97;12.23;;;-2.60;99.90;;;;;;4196201;28;20171;-67
2022/12/14 00:22:57;;;;;;;22.47;12.27;;;-2.60;99.90;;;;;;4197034;28;20434;-67
2022/12/14 00:24:57;;;;;;;22.80;12.27;;;-2.40;99.90;;;;;;4197743;28;20217;-67
2022/12/14 00:26:58;;;;;;;22.83;12.97;;;-2.30;99.90;;;;;;4197370;28;20432;-67
2022/12/14 00:29:01;;;;;;;16.90;9.30;;;-2.20;99.90;;;;;;4195889;28;20178;-67
2022/12/14 00:31:02;;;;;;;24.03;11.80;;;-2.30;99.90;;;;;;4196163;28;20570;-67
2022/12/14 00:33:02;;;;;;;22.83;12.10;;;-2.20;99.90;;;;;;4196479;28;20433;-67
2022/12/14 00:35:04;;;;;;;22.07;12.47;;;-2.00;99.90;;;;;;4195338;28;20182;-67
2022/12/14 00:37:04;;;;;;;19.67;10.73;;;-2.10;99.90;;;;;;4195764;28;20246;-67
2022/12/14 00:39:05;;;;;;;18.00;10.93;;;-2.20;99.90;;;;;;4197207;28;20474;-67
2022/12/14 00:41:07;;;;;;;22.37;11.13;;;-2.20;99.90;;;;;;4195823;28;20618;-67
2022/12/14 00:43:07;;;;;;;20.17;10.67;;;-2.20;99.90;;;;;;4195312;28;20183;-68
2022/12/14 00:45:08;;;;;;;22.83;12.27;;;-2.20;99.90;;;;;;4197156;28;20867;-68
2022/12/14 00:47:09;;;;;;;23.60;12.20;;;-2.40;99.90;;;;;;4197047;28;20864;-67
2022/12/14 00:49:10;;;;;;;23.07;11.60;;;-2.30;99.90;;;;;;4195526;28;20429;-67
2022/12/14 00:51:13;;;;;;;20.67;12.20;;;-2.10;99.90;;;;;;4197181;28;20240;-67
2022/12/14 00:53:14;;;;;;;18.50;10.53;;;-2.10;99.90;;;;;;4196670;28;21274;-67
2022/12/14 00:55:15;;;;;;;18.47;10.50;;;-2.10;99.90;;;;;;4195751;28;20432;-67
2022/12/14 00:57:15;;;;;;;22.80;12.23;;;-2.20;99.90;;;;;;4187844;28;20466;-67
2022/12/14 00:59:17;;;;;;;23.23;12.27;;;-2.20;99.90;;;;;;4180476;28;20208;-67
2022/12/14 01:01:19;;;;;;;22.33;11.60;;;-2.10;99.90;;;;;;4179384;28;20643;-67
2022/12/14 01:03:20;;;;;;;23.13;12.70;;;-2.00;99.90;;;;;;4178561;28;20892;-67
2022/12/14 01:05:20;;;;;;;21.23;10.87;;;-2.00;99.90;;;;;;4180206;28;20447;-67
2022/12/14 01:07:21;;;;;;;19.63;11.07;;;-2.10;99.90;;;;;;4178871;28;20235;-67
2022/12/14 01:09:24;;;;;;;19.33;11.00;;;-2.10;99.90;;;;;;4179895;28;20190;-67
2022/12/14 01:11:25;;;;;;;21.17;10.50;;;-2.20;99.90;;;;;;4178606;28;20188;-67
2022/12/14 01:13:26;;;;;;;22.27;12.00;;;-2.20;99.90;;;;;;4179240;28;20453;-67
2022/12/14 01:15:26;;;;;;;24.27;11.03;;;-2.20;99.90;;;;;;4179998;28;20176;-67
2022/12/14 01:17:27;;;;;;;20.00;10.93;;;-2.30;99.90;;;;;;4179824;28;20206;-67
2022/12/14 01:19:28;;;;;;;24.13;12.00;;;-2.30;99.90;;;;;;4179916;28;20184;-67
2022/12/14 01:21:29;;;;;;;25.43;12.67;;;-2.40;99.90;;;;;;4180213;28;20370;-67
2022/12/14 01:23:29;;;;;;;21.33;11.50;;;-2.40;99.90;;;;;;4179365;28;20210;-67
2022/12/14 01:25:30;;;;;;;25.27;12.83;;;-2.60;99.90;;;;;;4179851;28;20188;-68
2022/12/14 01:27:31;;;;;;;21.33;12.37;;;-2.60;99.90;;;;;;4179927;28;20194;-68
2022/12/14 01:29:31;;;;;;;27.03;13.77;;;-2.50;99.90;;;;;;4179857;28;20581;-68
2022/12/14 01:31:35;;;;;;;26.43;12.47;;;-2.60;99.90;;;;;;4178421;28;20184;-67
2022/12/14 01:33:36;;;;;;;26.90;13.73;;;-2.50;99.90;;;;;;4179200;28;20203;-67
2022/12/14 01:35:37;;;;;;;22.43;12.27;;;-2.40;99.90;;;;;;4178453;28;20472;-67
2022/12/14 01:37:37;;;;;;;22.10;12.47;;;-2.50;99.90;;;;;;4179555;28;20461;-67
2022/12/14 01:39:38;;;;;;;26.80;13.50;;;-2.70;99.90;;;;;;4178339;28;20181;-67
2022/12/14 01:41:48;;;;;;;20.47;11.07;;;-2.60;99.90;;;;;;4178257;28;20179;-67
2022/12/14 01:43:55;;;;;;;26.97;13.60;;;-2.60;99.90;;;;;;4178093;28;20258;-68
2022/12/14 01:45:57;;;;;;;26.30;12.13;;;-2.60;99.90;;;;;;4179715;28;21100;-67
2022/12/14 01:48:01;;;;;;;26.53;13.27;;;-2.50;99.90;;;;;;4178735;28;20824;-68
2022/12/14 01:50:31;;;;;;;22.30;12.33;;;-2.70;99.90;;;;;;4178097;28;20430;-67
2022/12/14 01:52:39;;;;;;;20.37;9.83;;;-2.80;99.90;;;;;;4177373;28;20411;-67
2022/12/14 01:55:02;;;;;;;25.00;12.47;;;-2.90;99.90;;;;;;4177990;28;20507;-67
2022/12/14 01:57:02;;;;;;;25.97;14.00;;;-3.10;99.90;;;;;;4177990;28;20470;-67
2022/12/14 01:59:07;;;;;;;24.70;13.23;;;-3.10;99.90;;;;;;4177929;28;20785;-67
2022/12/14 02:01:10;;;;;;;30.03;14.80;;;-3.10;99.90;;;;;;4178164;28;20566;-67
2022/12/14 02:03:20;;;;;;;27.13;13.63;;;-3.10;99.90;;;;;;4178429;28;21176;-67
2022/12/14 02:05:23;;;;;;;26.77;13.10;;;-3.00;99.90;;;;;;4179306;28;20843;-68
2022/12/14 02:07:27;;;;;;;21.33;10.63;;;-2.80;99.90;;;;;;4179154;28;20429;-67
2022/12/14 02:09:33;;;;;;;24.57;12.53;;;-2.70;99.90;;;;;;4177651;28;20553;-67
2022/12/14 02:12:24;;;;;;;23.40;12.40;;;-2.60;99.90;;;;;;4177659;28;20438;-67
2022/12/14 02:14:25;;;;;;;25.23;12.33;;;-2.50;99.90;;;;;;4177796;28;20528;-67
2022/12/14 02:16:26;;;;;;;25.27;13.30;;;-2.60;99.90;;;;;;4178992;28;20449;-67
2022/12/14 02:18:30;;;;;;;26.73;15.37;;;-2.70;99.90;;;;;;4178777;28;20329;-67
2022/12/14 02:20:45;;;;;;;25.07;14.53;;;-2.60;99.90;;;;;;4177486;28;20278;-67
2022/12/14 02:23:27;;;;;;;24.47;13.53;;;-2.60;99.90;;;;;;4177037;28;20764;-68
2022/12/14 02:25:52;;;;;;;26.40;13.00;;;-2.60;99.90;;;;;;4156914;28;20438;-68
2022/12/14 02:28:35;;;;;;;25.50;14.53;;;-2.40;99.90;;;;;;4178859;28;20437;-67
2022/12/14 02:30:41;;;;;;;25.63;13.43;;;-2.30;99.90;;;;;;4178831;28;20800;-67
2022/12/14 02:32:54;;;;;;;28.03;14.40;;;-2.40;99.90;;;;;;4160414;28;20439;-67
2022/12/14 02:35:44;;;;;;;25.23;13.00;;;-2.30;99.90;;;;;;4178781;28;20925;-67
2022/12/14 02:38:04;;;;;;;25.13;14.47;;;-2.10;99.90;;;;;;4177409;28;20848;-67
2022/12/14 02:40:33;;;;;;;29.20;13.40;;;-2.10;99.90;;;;;;4178813;28;20411;-67
2022/12/14 02:43:05;;;;;;;25.93;13.77;;;-2.10;99.90;;;;;;4178027;28;20465;-68
2022/12/14 02:45:54;;;;;;;25.37;14.03;;;-2.10;99.90;;;;;;4177755;28;20468;-67
2022/12/14 02:48:06;;;;;;;31.03;14.77;;;-2.20;99.90;;;;;;4159857;28;20511;-67
2022/12/14 02:50:41;;;;;;;27.27;14.83;;;-2.40;99.90;;;;;;4172653;28;20435;-67
2022/12/14 02:53:24;;;;;;;28.67;14.43;;;-2.50;99.90;;;;;;4160441;28;20447;-67
2022/12/14 02:55:36;;;;;;;25.37;14.10;;;-2.70;99.90;;;;;;4180817;28;20449;-67
2022/12/14 02:57:48;;;;;;;32.60;17.27;;;-2.70;99.90;;;;;;4177033;28;20470;-67
2022/12/14 02:59:55;;;;;;;28.77;13.90;;;-2.80;99.90;;;;;;4177362;28;20788;-67
2022/12/14 03:01:56;;;;;;;31.77;16.00;;;-2.60;99.90;;;;;;4177330;28;21000;-67
2022/12/14 03:03:57;;;;;;;33.20;15.50;;;-2.60;99.90;;;;;;4176698;28;20489;-67
2022/12/14 03:06:01;;;;;;;34.57;17.13;;;-2.80;99.90;;;;;;4177111;28;20181;-67
2022/12/14 03:08:10;;;;;;;39.43;17.93;;;-2.90;99.90;;;;;;4177137;28;20275;-67
2022/12/14 03:10:34;;;;;;;23.77;11.60;;;-2.90;99.90;;;;;;4185623;28;20479;-67
2022/12/14 03:12:39;;;;;;;31.40;15.20;;;-2.90;99.90;;;;;;4192843;28;21150;-67
2022/12/14 03:14:46;;;;;;;34.23;16.13;;;-2.80;99.90;;;;;;4193474;28;20438;-67
2022/12/14 03:16:49;;;;;;;37.00;17.73;;;-2.80;99.90;;;;;;4194873;28;21204;-67
2022/12/14 03:19:33;;;;;;;32.43;15.90;;;-2.60;99.90;;;;;;4193550;28;20459;-67
2022/12/14 03:21:38;;;;;;;30.60;14.90;;;-2.60;99.90;;;;;;4193318;28;20445;-67
2022/12/14 03:23:47;;;;;;;33.67;15.93;;;-2.70;99.90;;;;;;4192834;28;20951;-66
2022/12/14 03:26:00;;;;;;;34.00;14.80;;;-2.60;99.90;;;;;;4192285;28;20459;-66
2022/12/14 03:28:21;;;;;;;31.40;15.97;;;-2.50;99.90;;;;;;4194919;28;20434;-67
2022/12/14 03:30:22;;;;;;;37.50;17.73;;;-2.50;99.90;;;;;;4195055;28;20522;-67
2022/12/14 03:32:27;;;;;;;28.47;15.50;;;-2.50;99.90;;;;;;4194148;28;20521;-67
2022/12/14 03:34:38;;;;;;;31.00;17.33;;;-2.40;99.90;;;;;;4193347;28;20309;-67
2022/12/14 03:37:05;;;;;;;28.07;15.47;;;-2.10;99.90;;;;;;4193458;28;20439;-67
2022/12/14 03:39:12;;;;;;;30.83;15.30;;;-2.10;99.90;;;;;;4194730;28;20497;-67
2022/12/14 03:41:56;;;;;;;30.43;15.07;;;-2.10;99.90;;;;;;4176854;28;20904;-67
2022/12/14 03:44:22;;;;;;;30.20;16.27;;;-2.10;99.90;;;;;;4193542;28;20967;-67
2022/12/14 03:46:59;;;;;;;32.97;15.30;;;-1.90;99.90;;;;;;4194715;28;20503;-67
2022/12/14 03:49:28;;;;;;;31.80;14.13;;;-1.90;99.90;;;;;;4194517;28;20448;-67
2022/12/14 03:51:51;;;;;;;31.40;16.73;;;-2.20;99.90;;;;;;4193430;28;20450;-67
2022/12/14 03:54:20;;;;;;;28.77;15.47;;;-2.30;99.90;;;;;;4192590;28;20446;-67
2022/12/14 03:56:47;;;;;;;27.17;15.17;;;-2.30;99.90;;;;;;4194662;28;20429;-67
2022/12/14 03:59:03;;;;;;;28.97;16.40;;;-2.40;99.90;;;;;;4193272;28;20413;-67
2022/12/14 04:01:27;;;;;;;36.30;17.60;;;-2.40;99.90;;;;;;4193512;28;20402;-67
2022/12/14 04:03:53;;;;;;;32.10;15.47;;;-2.30;99.90;;;;;;4192921;28;21200;-67
2022/12/14 04:06:14;;;;;;;32.87;16.63;;;-2.30;99.90;;;;;;4193341;28;20438;-67
2022/12/14 04:08:17;;;;;;;36.73;17.17;;;-2.20;99.90;;;;;;4194673;28;20417;-67
2022/12/14 04:20:19;;;;;;;38.83;18.77;;;-2.20;99.90;;;;;;4196648;28;20441;-67
2022/12/14 04:22:25;;;;;;;31.47;17.10;;;-2.30;99.90;;;;;;4195663;28;20492;-67
2022/12/14 04:27:36;;;;;;;35.17;17.90;;;-2.60;99.90;;;;;;4196188;28;20457;-67
2022/12/14 04:29:56;;;;;;;32.43;18.00;;;-2.50;99.90;;;;;;4179449;28;20879;-67
2022/12/14 04:32:24;;;;;;;32.20;17.50;;;-2.50;99.90;;;;;;4195967;28;20402;-67
2022/12/14 04:34:27;;;;;;;34.77;17.23;;;-2.40;99.90;;;;;;4196849;28;20454;-67
2022/12/14 04:36:56;;;;;;;39.00;19.07;;;-2.30;99.90;;;;;;4197146;28;20421;-67
2022/12/14 04:39:04;;;;;;;31.90;17.60;;;-2.30;99.90;;;;;;4179199;28;20957;-67
2022/12/14 04:41:08;;;;;;;32.80;16.63;;;-2.20;99.90;;;;;;4195925;28;20537;-67
2022/12/14 04:43:16;;;;;;;34.83;18.60;;;-2.00;99.90;;;;;;4195013;28;21261;-67
2022/12/14 04:45:32;;;;;;;36.07;19.30;;;-1.90;99.90;;;;;;4197147;28;20492;-67
2022/12/14 04:47:41;;;;;;;39.80;19.27;;;-2.00;99.90;;;;;;4195776;28;20429;-67
2022/12/14 04:49:53;;;;;;;35.07;19.10;;;-2.00;99.90;;;;;;4195590;28;20421;-67
2022/12/14 04:52:14;;;;;;;36.23;18.40;;;-2.20;99.90;;;;;;4178777;28;20901;-67
2022/12/14 04:54:41;;;;;;;39.17;20.20;;;-2.20;99.90;;;;;;4194513;28;20453;-67
2022/12/14 04:56:50;;;;;;;37.50;18.30;;;-2.20;99.90;;;;;;4195989;28;20410;-67
2022/12/14 04:58:51;;;;;;;48.33;22.40;;;-2.40;99.90;;;;;;4189246;28;20429;-67
2022/12/14 05:01:19;;;;;;;39.70;20.33;;;-2.60;99.90;;;;;;4184752;28;20792;-67
2022/12/14 05:03:56;;;;;;;35.63;17.70;;;-2.60;99.90;;;;;;4196471;28;20380;-67
2022/12/14 05:06:23;;;;;;;34.47;18.17;;;-2.60;99.90;;;;;;4196447;28;20433;-67
2022/12/14 05:09:05;;;;;;;40.87;21.03;;;-2.60;99.90;;;;;;4195675;28;20494;-67
2022/12/14 05:11:25;;;;;;;37.83;18.90;;;-2.60;99.90;;;;;;4196540;28;20448;-67
2022/12/14 05:13:48;;;;;;;36.93;18.73;;;-2.60;99.90;;;;;;4194776;28;20445;-67
2022/12/14 05:15:52;;;;;;;37.00;17.80;;;-2.70;99.90;;;;;;4195014;28;20429;-67
2022/12/14 05:17:53;;;;;;;39.27;18.30;;;-2.80;99.90;;;;;;4189609;28;21008;-67
2022/12/14 05:19:54;;;;;;;43.33;22.47;;;-2.80;99.90;;;;;;4184476;28;20430;-67
2022/12/14 05:21:55;;;;;;;43.10;21.43;;;-3.00;99.90;;;;;;4196201;28;20911;-67
2022/12/14 05:23:58;;;;;;;41.50;19.40;;;-3.00;99.90;;;;;;4178063;28;20299;-67
2022/12/14 05:25:59;;;;;;;41.90;19.70;;;-3.10;99.90;;;;;;4196362;28;20198;-67
2022/12/14 05:28:00;;;;;;;46.33;22.07;;;-3.00;99.90;;;;;;4196354;28;20923;-67
2022/12/14 05:30:00;;;;;;;40.13;19.97;;;-3.00;99.90;;;;;;4196251;28;20280;-67
2022/12/14 05:32:02;;;;;;;43.73;20.33;;;-2.80;99.90;;;;;;4196343;28;20191;-67
2022/12/14 05:34:02;;;;;;;41.53;20.07;;;-2.80;99.90;;;;;;4194657;28;20279;-67
2022/12/14 05:36:03;;;;;;;48.67;21.13;;;-2.80;99.90;;;;;;4194981;28;20429;-67
2022/12/14 05:38:04;;;;;;;39.20;19.60;;;-2.80;99.90;;;;;;4194731;28;20267;-67
2022/12/14 05:40:06;;;;;;;41.37;19.67;;;-2.70;99.90;;;;;;4196005;28;20873;-67
2022/12/14 05:42:07;;;;;;;43.43;18.90;;;-2.50;99.90;;;;;;4195549;28;20196;-67
2022/12/14 05:44:08;;;;;;;39.47;18.67;;;-2.50;99.90;;;;;;4195980;28;20438;-67
2022/12/14 05:46:12;;;;;;;44.17;20.47;;;-2.40;99.90;;;;;;4196144;28;20186;-67
2022/12/14 05:48:13;;;;;;;40.40;19.97;;;-2.30;99.90;;;;;;4194744;28;20672;-67
2022/12/14 05:50:14;;;;;;;39.57;18.67;;;-2.30;99.90;;;;;;4196003;28;20433;-67
2022/12/14 05:52:15;;;;;;;39.10;19.70;;;-2.10;99.90;;;;;;4194534;28;20195;-67
2022/12/14 05:54:16;;;;;;;39.20;19.40;;;-2.10;99.90;;;;;;4196169;28;20246;-67
2022/12/14 05:56:16;;;;;;;40.87;18.77;;;-2.20;99.90;;;;;;4194705;28;20461;-66
2022/12/14 05:58:17;;;;;;;39.93;19.00;;;-2.30;99.90;;;;;;4194691;28;20223;-66
2022/12/14 06:00:18;;;;;;;38.53;18.20;;;-2.20;99.90;;;;;;4195991;28;20294;-67
2022/12/14 06:02:19;;;;;;;39.77;19.47;;;-2.20;99.90;;;;;;4195364;28;20187;-68
2022/12/14 06:04:19;;;;;;;34.37;18.63;;;-2.00;99.90;;;;;;4195963;28;20291;-67
2022/12/14 06:06:20;;;;;;;46.50;20.77;;;-2.10;99.90;;;;;;4195856;28;20186;-67
2022/12/14 06:08:21;;;;;;;48.50;21.70;;;-2.20;99.90;;;;;;4195765;28;20597;-68
2022/12/14 06:10:22;;;;;;;47.57;22.10;;;-2.10;99.90;;;;;;4177851;28;20191;-67
2022/12/14 06:12:23;;;;;;;41.93;18.63;;;-2.20;99.90;;;;;;4193509;28;20199;-68
2022/12/14 06:14:24;;;;;;;42.10;20.07;;;-2.10;99.90;;;;;;4195461;28;20460;-67
2022/12/14 06:16:26;;;;;;;45.17;21.03;;;-2.10;99.90;;;;;;4195822;28;20707;-67
2022/12/14 06:18:27;;;;;;;48.40;20.67;;;-2.20;99.90;;;;;;4194089;28;20584;-67
2022/12/14 06:20:27;;;;;;;49.37;20.00;;;-2.20;99.90;;;;;;4195854;28;21149;-67
2022/12/14 06:22:28;;;;;;;38.47;20.03;;;-2.40;99.90;;;;;;4194919;28;21066;-68
2022/12/14 06:24:29;;;;;;;41.57;20.47;;;-2.50;99.90;;;;;;4195646;28;20221;-67
2022/12/14 06:26:32;;;;;;;38.80;19.53;;;-2.50;99.90;;;;;;4195616;28;20193;-67
2022/12/14 06:28:33;;;;;;;42.73;19.40;;;-2.50;99.90;;;;;;4194217;28;20185;-67
2022/12/14 06:30:34;;;;;;;39.73;18.93;;;-2.60;99.90;;;;;;4194208;28;20433;-68
2022/12/14 06:32:34;;;;;;;45.10;20.50;;;-2.60;99.90;;;;;;4193050;28;20436;-67
2022/12/14 06:34:35;;;;;;;49.30;22.47;;;-2.50;99.90;;;;;;4195338;28;20248;-67
2022/12/14 06:36:39;;;;;;;39.37;18.20;;;-2.50;99.90;;;;;;4195493;28;20194;-67
2022/12/14 06:38:40;;;;;;;44.63;20.60;;;-2.60;99.90;;;;;;4177410;28;20199;-67
2022/12/14 06:40:41;;;;;;;55.67;24.13;;;-2.50;99.90;;;;;;4194075;28;20454;-67
2022/12/14 06:42:41;;;;;;;43.93;21.60;;;-2.40;99.90;;;;;;4194641;28;20665;-67
2022/12/14 06:44:42;;;;;;;47.07;20.80;;;-2.30;99.90;;;;;;4193759;28;20203;-67
2022/12/14 06:46:43;;;;;;;47.63;21.87;;;-2.10;99.90;;;;;;4193884;28;20289;-67
2022/12/14 06:48:52;;;;;;;50.40;23.50;;;-1.90;99.90;;;;;;4193966;28;20190;-67
2022/12/14 06:51:00;;;;;;;46.73;21.40;;;-1.70;99.90;;;;;;4193467;28;20993;-67
2022/12/14 06:53:01;;;;;;;43.10;20.80;;;-1.50;99.90;;;;;;4193255;28;20426;-68
2022/12/14 06:55:02;;;;;;;54.40;22.77;;;-1.40;99.90;;;;;;4186149;28;20510;-67
2022/12/14 06:57:02;;;;;;;39.77;20.40;;;-1.20;99.90;;;;;;4178957;28;20865;-67
2022/12/14 06:59:04;;;;;;;38.27;18.73;;;-1.00;99.90;;;;;;4178688;28;20419;-67
2022/12/14 07:01:17;;;;;;;41.13;20.53;;;-1.00;99.90;;;;;;4177222;28;20181;-67
2022/12/14 07:03:17;;;;;;;46.47;21.47;;;-0.90;99.90;;;;;;4176593;28;20418;-67
2022/12/14 07:05:18;;;;;;;40.97;20.43;;;-0.80;99.90;;;;;;4178712;28;20837;-67
2022/12/14 07:07:19;;;;;;;42.70;20.63;;;-0.80;99.90;;;;;;4178595;28;20601;-67
2022/12/14 07:09:20;;;;;;;36.90;18.77;;;-0.90;99.90;;;;;;4177347;28;20426;-67
2022/12/14 07:11:21;;;;;;;36.97;18.53;;;-0.90;99.90;;;;;;4178409;28;20196;-67
2022/12/14 07:13:22;;;;;;;37.87;18.77;;;-0.80;99.90;;;;;;4160095;28;20354;-67
2022/12/14 07:15:23;;;;;;;44.07;20.20;;;-0.80;99.90;;;;;;4182997;28;20955;-68
2022/12/14 07:17:23;;;;;;;40.93;19.90;;;-0.90;99.90;;;;;;4194392;28;20662;-67
2022/12/14 07:19:24;;;;;;;46.93;21.20;;;-1.00;99.90;;;;;;4194559;28;20575;-66
2022/12/14 07:21:25;;;;;;;41.50;19.70;;;-1.00;99.90;;;;;;4193891;28;20183;-66
2022/12/14 07:23:28;;;;;;;37.80;17.23;;;-1.20;99.90;;;;;;4192915;28;20588;-67
2022/12/14 07:25:29;;;;;;;42.30;21.87;;;-1.40;99.90;;;;;;4193247;28;20453;-66
2022/12/14 07:27:30;;;;;;;46.23;21.33;;;-1.50;99.90;;;;;;4194187;28;20433;-66
2022/12/14 07:29:31;;;;;;;55.20;23.63;;;-1.60;99.90;;;;;;4193303;28;20219;-67
2022/12/14 07:31:31;;;;;;;40.47;19.60;;;-1.60;99.90;;;;;;4194748;28;20179;-66
2022/12/14 07:33:33;;;;;;;52.13;23.37;;;-1.50;99.90;;;;;;4194257;28;20210;-66
2022/12/14 07:35:34;;;;;;;48.90;21.93;;;-1.20;99.90;;;;;;4176939;28;20184;-66
2022/12/14 07:37:34;;;;;;;46.43;22.03;;;-1.10;99.90;;;;;;4194582;28;20477;-66
2022/12/14 07:39:35;;;;;;;46.43;22.27;;;-1.00;99.90;;;;;;4194594;28;20188;-66
2022/12/14 07:41:36;;;;;;;38.90;19.23;;;-0.90;99.90;;;;;;4194741;28;20218;-67
2022/12/14 07:43:41;;;;;;;45.63;19.83;;;-0.80;99.90;;;;;;4194342;28;20199;-66
2022/12/14 07:45:42;;;;;;;39.27;19.23;;;-0.60;99.90;;;;;;4195306;28;20172;-66
2022/12/14 07:47:42;;;;;;;53.80;23.53;;;-0.40;99.90;;;;;;4198023;28;20936;-66
2022/12/14 07:49:43;;;;;;;40.43;19.63;;;-0.20;99.90;;;;;;4197916;28;20642;-66
2022/12/14 07:51:44;;;;;;;41.70;20.77;;;-0.30;99.90;;;;;;4197881;28;20553;-66
2022/12/14 07:53:45;;;;;;;49.83;21.20;;;-0.30;99.90;;;;;;4197228;28;20577;-66
2022/12/14 07:55:46;;;;;;;44.80;19.23;;;-0.30;99.90;;;;;;4197644;28;20425;-66
2022/12/14 07:57:46;;;;;;;47.30;20.63;;;-0.20;99.90;;;;;;4197782;28;20203;-66
2022/12/14 07:59:48;;;;;;;41.30;19.33;;;0.00;99.90;;;;;;4197778;28;20191;-66
2022/12/14 08:01:51;;;;;;;37.50;18.33;;;0.10;99.90;;;;;;4196615;28;20242;-66
2022/12/14 08:03:55;;;;;;;48.80;21.87;;;0.40;99.90;;;;;;4195953;28;20536;-66
2022/12/14 08:05:57;;;;;;;37.93;20.73;;;0.60;99.90;;;;;;4197759;28;20422;-66
2022/12/14 08:07:57;;;;;;;44.83;21.50;;;0.70;99.90;;;;;;4197580;28;20430;-67
2022/12/14 08:09:58;;;;;;;38.63;19.97;;;0.70;99.90;;;;;;4197617;28;20426;-66
2022/12/14 08:11:59;;;;;;;42.40;20.13;;;0.80;99.90;;;;;;4196077;28;20728;-66
2022/12/14 08:14:06;;;;;;;43.40;22.00;;;0.80;99.90;;;;;;4196960;28;20243;-66
2022/12/14 08:16:12;;;;;;;49.47;25.30;;;0.90;99.90;;;;;;4196465;28;20180;-66
2022/12/14 08:18:13;;;;;;;40.57;22.53;;;0.90;99.90;;;;;;4197240;28;20457;-66
2022/12/14 08:20:14;;;;;;;40.97;20.83;;;0.80;99.90;;;;;;4197260;28;20423;-67
2022/12/14 08:22:15;;;;;;;48.90;22.30;;;0.80;99.90;;;;;;4196702;28;20187;-67
2022/12/14 08:24:15;;;;;;;39.67;21.27;;;0.70;99.90;;;;;;4195843;28;20200;-66
2022/12/14 08:26:17;;;;;;;47.43;22.50;;;0.70;99.90;;;;;;4197407;28;20187;-66
2022/12/14 08:28:18;;;;;;;37.57;21.60;;;0.70;99.90;;;;;;4196238;28;20227;-66
2022/12/14 08:30:19;;;;;;;41.07;21.63;;;0.80;99.90;;;;;;4197150;28;20421;-67
2022/12/14 08:32:19;;;;;;;47.03;22.67;;;0.90;99.90;;;;;;4196570;28;20187;-66
2022/12/14 08:34:21;;;;;;;59.93;31.57;;;1.00;99.90;;;;;;4195920;28;20306;-67
2022/12/14 08:36:26;;;;;;;43.90;22.17;;;1.10;99.90;;;;;;4195658;28;20272;-67
2022/12/14 08:38:27;;;;;;;49.47;24.97;;;1.10;99.90;;;;;;4195805;28;21128;-67
2022/12/14 08:40:29;;;;;;;45.53;22.97;;;1.30;99.90;;;;;;4196736;28;20463;-66
2022/12/14 08:42:29;;;;;;;40.73;21.07;;;1.50;99.60;;;;;;4194944;28;20192;-67
2022/12/14 08:44:30;;;;;;;39.13;18.57;;;1.50;99.20;;;;;;4195661;28;20446;-67
2022/12/14 08:46:33;;;;;;;36.20;19.37;;;1.50;98.90;;;;;;4196986;28;20185;-67
2022/12/14 08:48:33;;;;;;;44.03;20.03;;;1.30;99.60;;;;;;4197198;28;20239;-67
2022/12/14 08:50:34;;;;;;;35.30;18.97;;;1.20;99.90;;;;;;4196966;28;20426;-66
2022/12/14 08:52:35;;;;;;;43.60;23.23;;;1.10;99.90;;;;;;4196238;28;20194;-66
2022/12/14 08:54:35;;;;;;;38.20;19.63;;;1.00;99.90;;;;;;4194157;28;20229;-66
2022/12/14 08:56:37;;;;;;;34.13;19.13;;;0.70;99.90;;;;;;4196527;28;20184;-67
2022/12/14 08:58:39;;;;;;;35.77;18.93;;;0.70;99.90;;;;;;4196634;28;20224;-66
2022/12/14 09:00:40;;;;;;;37.57;19.07;;;0.80;99.90;;;;;;4195648;28;20422;-66
2022/12/14 09:02:40;;;;;;;35.43;19.00;;;0.80;99.90;;;;;;4196266;28;20421;-66
2022/12/14 09:04:41;;;;;;;34.23;18.77;;;1.10;99.90;;;;;;4195679;28;20680;-66
2022/12/14 09:06:42;;;;;;;37.63;19.13;;;1.30;99.90;;;;;;4197162;28;20253;-66
2022/12/14 09:08:43;;;;;;;35.30;19.57;;;1.50;99.90;;;;;;4195716;28;20190;-67
2022/12/14 09:10:49;;;;;;;39.73;20.00;;;1.60;99.90;;;;;;4195223;28;20795;-66
2022/12/14 09:12:50;;;;;;;37.00;18.63;;;1.70;99.90;;;;;;4195939;28;20416;-66
2022/12/14 09:14:51;;;;;;;34.80;17.03;;;1.50;99.90;;;;;;4195082;28;20464;-66
2022/12/14 09:16:51;;;;;;;36.97;20.00;;;1.40;99.90;;;;;;4195252;28;20194;-66
2022/12/14 09:18:52;;;;;;;36.10;18.43;;;1.40;99.90;;;;;;4196610;28;20742;-66
2022/12/14 09:20:54;;;;;;;38.30;21.00;;;1.20;99.90;;;;;;4196560;28;20970;-66
2022/12/14 09:22:55;;;;;;;35.77;18.63;;;1.20;99.90;;;;;;4195821;28;20844;-66
2022/12/14 09:24:56;;;;;;;38.83;20.37;;;1.10;99.90;;;;;;4196505;28;20455;-66
2022/12/14 09:26:59;;;;;;;38.07;18.57;;;1.10;99.90;;;;;;4196357;28;20587;-66
2022/12/14 09:29:00;;;;;;;42.13;20.20;;;1.10;99.90;;;;;;4178583;28;20179;-67
2022/12/14 09:31:06;;;;;;;39.50;20.10;;;1.30;99.90;;;;;;4196379;28;20964;-66
2022/12/14 09:33:06;;;;;;;37.57;18.70;;;1.50;99.90;;;;;;4194354;28;20193;-66
2022/12/14 09:35:07;;;;;;;37.23;19.00;;;1.50;99.90;;;;;;4196523;28;20481;-67
2022/12/14 09:37:08;;;;;;;36.17;19.10;;;1.70;99.90;;;;;;4194816;28;20243;-66
2022/12/14 09:39:13;;;;;;;34.87;19.57;;;1.80;99.90;;;;;;4196263;28;20205;-66
2022/12/14 09:41:34;;;;;;;48.60;23.83;;;1.80;99.90;;;;;;4196510;28;20167;-66
2022/12/14 09:44:00;;;;;;;38.47;19.60;;;1.80;99.90;;;;;;4195704;28;20489;-66
2022/12/14 09:46:22;;;;;;;43.83;22.90;;;1.80;99.90;;;;;;4194977;28;20429;-66
2022/12/14 09:48:24;;;;;;;34.77;18.80;;;1.90;99.90;;;;;;4196107;28;20431;-66
2022/12/14 09:50:26;;;;;;;38.90;19.67;;;1.90;99.90;;;;;;4195029;28;20425;-66
2022/12/14 09:52:39;;;;;;;36.07;20.57;;;1.70;99.90;;;;;;4194228;28;20425;-66
2022/12/14 09:54:41;;;;;;;36.53;19.40;;;1.70;99.90;;;;;;4194936;28;20537;-66
2022/12/14 09:56:43;;;;;;;43.53;21.10;;;1.80;99.90;;;;;;4196216;28;20977;-66
2022/12/14 09:58:53;;;;;;;39.20;21.23;;;1.90;99.90;;;;;;4196022;28;20493;-66
2022/12/14 10:01:02;;;;;;;43.87;21.53;;;1.80;99.90;;;;;;4194746;28;20430;-66
2022/12/14 10:03:39;;;;;;;54.53;27.03;;;1.90;99.90;;;;;;4195232;28;20403;-66
2022/12/14 10:06:09;;;;;;;45.13;24.67;;;1.80;99.90;;;;;;4194400;28;20413;-66
2022/12/14 10:08:35;;;;;;;54.33;30.37;;;2.00;99.90;;;;;;4195042;28;20449;-66
2022/12/14 10:11:27;;;;;;;46.87;25.87;;;2.00;99.90;;;;;;4194496;28;20429;-66
2022/12/14 10:13:34;;;;;;;41.13;22.03;;;2.10;99.90;;;;;;4195252;28;20445;-66
2022/12/14 10:16:06;;;;;;;43.90;22.20;;;1.90;99.90;;;;;;4195408;28;20453;-66
2022/12/14 10:18:49;;;;;;;37.90;20.87;;;1.70;99.90;;;;;;4195592;28;20479;-66
2022/12/14 10:21:02;;;;;;;40.60;20.97;;;1.70;99.90;;;;;;4184637;28;20448;-66
2022/12/14 10:23:03;;;;;;;40.80;21.97;;;1.60;99.90;;;;;;4193980;28;20416;-66
2022/12/14 10:25:26;;;;;;;51.37;26.47;;;1.70;99.90;;;;;;4196060;28;20505;-67
2022/12/14 10:27:30;;;;;;;44.47;24.30;;;1.80;99.90;;;;;;4194590;28;20452;-66
2022/12/14 10:29:50;;;;;;;46.87;23.60;;;2.00;99.90;;;;;;4194593;28;20500;-67
2022/12/14 10:32:10;;;;;;;41.20;21.83;;;2.20;99.90;;;;;;4194474;28;20424;-66
2022/12/14 10:34:21;;;;;;;45.37;24.00;;;2.20;99.90;;;;;;4194430;28;20449;-66
2022/12/14 10:36:33;;;;;;;44.70;22.97;;;2.30;99.90;;;;;;4194680;28;20413;-66
2022/12/14 10:39:00;;;;;;;51.70;25.50;;;2.40;99.90;;;;;;4194438;28;20468;-66
2022/12/14 10:41:37;;;;;;;47.43;24.93;;;2.50;99.90;;;;;;4201677;28;20420;-66
2022/12/14 10:43:55;;;;;;;40.30;21.83;;;2.40;99.90;;;;;;4200526;28;20454;-66
2022/12/14 10:46:25;;;;;;;46.90;21.23;;;2.40;99.90;;;;;;4203399;28;20429;-66
2022/12/14 10:48:45;;;;;;;40.80;22.33;;;2.50;99.90;;;;;;4186685;28;20444;-65
2022/12/14 10:51:00;;;;;;;56.77;28.00;;;2.70;99.90;;;;;;4205051;28;20432;-65
2022/12/14 10:53:04;;;;;;;41.13;22.37;;;2.60;99.90;;;;;;4194034;28;20417;-66
2022/12/14 10:55:17;;;;;;;37.47;19.30;;;2.50;99.90;;;;;;4194766;28;20952;-66
2022/12/14 10:57:22;;;;;;;41.13;21.00;;;2.60;99.90;;;;;;4194032;28;20493;-65
2022/12/14 10:59:26;;;;;;;38.80;20.83;;;2.70;99.90;;;;;;4180952;28;20407;-66
2022/12/14 11:01:26;;;;;;;38.63;20.43;;;3.00;99.90;;;;;;4177815;28;21300;-66
2022/12/14 11:03:27;;;;;;;37.03;20.20;;;3.10;99.90;;;;;;4178272;28;20472;-66